createdAt,value
2019-02-22T00:01:39.316Z,22.93
2019-02-22T00:04:10.243Z,24.23
2019-02-22T00:06:43.479Z,22.53
2019-02-22T00:09:13.277Z,24.10
2019-02-22T00:11:43.713Z,25.50
2019-02-22T00:14:13.799Z,23.50
2019-02-22T00:16:43.940Z,24.93
2019-02-22T00:19:15.288Z,24.40
2019-02-22T00:21:45.365Z,22.97
2019-02-22T00:24:15.474Z,22.73
2019-02-22T00:26:45.545Z,24.40
2019-02-22T00:29:15.580Z,24.20
2019-02-22T00:31:45.659Z,24.33
2019-02-22T00:34:17.228Z,23.90
2019-02-22T00:36:47.431Z,21.90
2019-02-22T00:39:17.620Z,21.00
2019-02-22T00:41:50.688Z,20.10
2019-02-22T00:44:22.306Z,23.00
2019-02-22T00:46:52.422Z,22.57
2019-02-22T00:49:22.404Z,22.60
2019-02-22T00:51:52.491Z,23.50
2019-02-22T00:54:22.548Z,21.60
2019-02-22T00:56:54.328Z,21.60
2019-02-22T00:59:24.318Z,24.72
2019-02-22T01:01:54.389Z,24.13
2019-02-22T01:04:24.394Z,22.97
2019-02-22T01:06:57.519Z,20.73
2019-02-22T01:09:27.528Z,21.30
2019-02-22T01:11:57.530Z,21.60
2019-02-22T01:14:29.367Z,22.60
2019-02-22T01:16:59.474Z,21.67
2019-02-22T01:19:32.593Z,23.10
2019-02-22T01:22:02.676Z,21.17
2019-02-22T01:24:32.695Z,22.23
2019-02-22T01:27:02.824Z,23.27
2019-02-22T01:29:32.826Z,35.70
2019-02-22T01:32:06.864Z,25.73
2019-02-22T01:34:38.231Z,19.97
2019-02-22T01:37:08.284Z,21.23
2019-02-22T01:39:39.393Z,20.77
2019-02-22T01:42:13.442Z,19.87
2019-02-22T01:44:44.781Z,19.30
2019-02-22T01:47:15.971Z,20.07
2019-02-22T01:49:46.956Z,20.80
2019-02-22T01:52:22.748Z,23.07
2019-02-22T01:54:52.510Z,24.10
2019-02-22T01:57:22.593Z,24.43
2019-02-22T01:59:52.666Z,21.87
2019-02-22T02:02:24.221Z,22.20
2019-02-22T02:04:54.383Z,23.90
2019-02-22T02:07:27.235Z,23.40
2019-02-22T02:09:57.331Z,26.43
2019-02-22T02:12:28.712Z,23.67
2019-02-22T02:15:00.505Z,24.40
2019-02-22T02:17:32.125Z,24.33
2019-02-22T02:20:09.242Z,24.00
2019-02-22T02:22:40.083Z,26.00
2019-02-22T02:25:13.423Z,24.30
2019-02-22T02:27:47.500Z,23.73
2019-02-22T02:30:17.333Z,26.87
2019-02-22T02:32:47.393Z,25.47
2019-02-22T02:35:18.941Z,25.27
2019-02-22T02:37:49.006Z,24.77
2019-02-22T02:40:23.452Z,25.00
2019-02-22T02:42:54.650Z,24.27
2019-02-22T02:45:24.648Z,24.03
2019-02-22T02:47:56.628Z,24.20
2019-02-22T02:50:27.853Z,23.67
2019-02-22T02:52:57.925Z,24.60
2019-02-22T02:55:30.273Z,26.70
2019-02-22T02:58:00.427Z,22.87
2019-02-22T03:00:32.320Z,23.67
2019-02-22T03:03:08.059Z,24.63
2019-02-22T03:05:47.828Z,26.00
2019-02-22T03:08:17.969Z,24.37
2019-02-22T03:10:49.665Z,25.37
2019-02-22T03:13:19.804Z,27.27
2019-02-22T03:15:52.672Z,26.37
2019-02-22T03:18:22.754Z,26.57
2019-02-22T03:20:54.404Z,28.27
2019-02-22T03:23:25.510Z,28.57
2019-02-22T03:25:56.816Z,27.70
2019-02-22T03:28:29.813Z,30.60
2019-02-22T03:31:01.860Z,27.90
2019-02-22T03:33:33.537Z,28.70
2019-02-22T03:36:03.609Z,31.70
2019-02-22T03:38:35.472Z,29.67
2019-02-22T03:41:05.656Z,30.93
2019-02-22T03:43:35.807Z,33.57
2019-02-22T03:46:09.049Z,33.07
2019-02-22T03:48:39.125Z,33.40
2019-02-22T03:51:09.194Z,33.70
2019-02-22T03:53:46.610Z,32.77
2019-02-22T03:56:19.483Z,33.40
2019-02-22T03:58:49.483Z,34.50
2019-02-22T04:01:20.776Z,31.83
2019-02-22T04:03:50.912Z,33.73
2019-02-22T04:06:22.705Z,33.13
2019-02-22T04:08:52.775Z,34.00
2019-02-22T04:11:22.863Z,30.77
2019-02-22T04:13:52.960Z,33.33
2019-02-22T04:16:23.215Z,35.13
2019-02-22T04:18:54.433Z,31.60
2019-02-22T04:21:24.511Z,33.27
2019-02-22T04:23:55.789Z,34.20
2019-02-22T04:26:26.842Z,32.53
2019-02-22T04:28:58.608Z,34.27
2019-02-22T04:31:33.915Z,34.77
2019-02-22T04:34:00.475Z,37.30
2019-02-22T04:36:32.496Z,34.97
2019-02-22T04:39:04.676Z,35.50
2019-02-22T04:41:36.501Z,39.10
2019-02-22T04:44:09.857Z,39.43
2019-02-22T04:46:43.006Z,40.93
2019-02-22T04:49:13.271Z,39.97
2019-02-22T04:51:45.224Z,40.47
2019-02-22T04:54:16.942Z,41.70
2019-02-22T04:56:47.011Z,41.83
2019-02-22T04:59:18.566Z,41.07
2019-02-22T05:01:51.670Z,41.60
2019-02-22T05:04:24.189Z,43.47
2019-02-22T05:06:55.728Z,35.87
2019-02-22T05:09:26.964Z,41.33
2019-02-22T05:11:57.088Z,41.03
2019-02-22T05:14:27.106Z,40.50
2019-02-22T05:16:58.275Z,39.50
2019-02-22T05:19:31.462Z,50.80
2019-02-22T05:22:01.450Z,41.37
2019-02-22T05:24:32.749Z,38.53
2019-02-22T05:27:04.806Z,39.57
2019-02-22T05:29:34.922Z,39.77
2019-02-22T05:32:05.762Z,41.27
2019-02-22T05:34:35.905Z,41.07
2019-02-22T05:37:07.116Z,41.70
2019-02-22T05:39:38.298Z,40.07
2019-02-22T05:42:08.368Z,40.50
2019-02-22T05:44:40.209Z,41.30
2019-02-22T05:47:14.206Z,44.63
2019-02-22T05:49:44.296Z,42.57
2019-02-22T05:52:14.455Z,39.93
2019-02-22T05:54:45.752Z,43.10
2019-02-22T05:57:15.818Z,42.20
2019-02-22T05:59:47.689Z,41.50
2019-02-22T06:02:19.367Z,42.70
2019-02-22T06:04:49.526Z,44.33
2019-02-22T06:07:20.130Z,43.00
2019-02-22T06:09:50.128Z,45.07
2019-02-22T06:12:20.257Z,43.47
2019-02-22T06:14:50.278Z,39.40
2019-02-22T06:17:21.353Z,43.70
2019-02-22T06:19:51.334Z,43.50
2019-02-22T06:22:29.682Z,42.90
2019-02-22T06:24:57.536Z,39.90
2019-02-22T06:27:28.570Z,46.03
2019-02-22T06:30:03.392Z,42.50
2019-02-22T06:32:34.817Z,44.00
2019-02-22T06:35:05.086Z,54.95
2019-02-22T06:37:35.223Z,47.47
2019-02-22T06:40:05.934Z,44.67
2019-02-22T06:42:45.294Z,47.90
2019-02-22T06:45:17.045Z,45.17
2019-02-22T06:47:48.101Z,43.87
2019-02-22T06:50:19.927Z,44.43
2019-02-22T06:52:52.705Z,43.40
2019-02-22T06:55:23.640Z,47.50
2019-02-22T06:57:53.693Z,44.87
2019-02-22T07:00:24.881Z,47.33
2019-02-22T07:02:56.340Z,44.37
2019-02-22T07:05:27.809Z,45.90
2019-02-22T07:08:05.856Z,43.40
2019-02-22T07:10:54.921Z,43.43
2019-02-22T07:13:26.241Z,47.07
2019-02-22T07:15:59.306Z,46.70
2019-02-22T07:18:35.001Z,46.83
2019-02-22T07:21:05.125Z,42.63
2019-02-22T07:23:36.163Z,42.30
2019-02-22T07:26:09.072Z,47.40
2019-02-22T07:28:40.905Z,46.67
2019-02-22T07:31:11.004Z,50.27
2019-02-22T07:33:41.005Z,47.90
2019-02-22T07:36:11.195Z,49.03
2019-02-22T07:38:41.344Z,49.70
2019-02-22T07:41:12.628Z,48.20
2019-02-22T07:43:44.392Z,53.20
2019-02-22T07:46:14.481Z,49.60
2019-02-22T07:48:47.007Z,49.60
2019-02-22T07:51:18.732Z,46.97
2019-02-22T07:53:48.059Z,47.53
2019-02-22T07:56:19.366Z,46.63
2019-02-22T07:58:51.397Z,46.23
2019-02-22T08:01:26.906Z,48.80
2019-02-22T08:03:58.932Z,46.30
2019-02-22T08:06:29.028Z,46.97
2019-02-22T08:09:00.776Z,47.00
2019-02-22T08:11:38.134Z,45.67
2019-02-22T08:14:12.398Z,48.57
2019-02-22T08:16:42.548Z,43.77
2019-02-22T08:19:16.165Z,44.73
2019-02-22T08:21:47.082Z,44.07
2019-02-22T08:24:17.217Z,45.50
2019-02-22T08:26:48.928Z,42.90
2019-02-22T08:29:18.937Z,45.07
2019-02-22T08:31:50.722Z,44.50
2019-02-22T08:34:20.798Z,47.57
2019-02-22T08:36:55.530Z,44.93
2019-02-22T08:39:25.688Z,44.63
2019-02-22T08:41:57.465Z,44.90
2019-02-22T08:44:28.337Z,46.03
2019-02-22T08:46:58.438Z,43.33
2019-02-22T08:49:30.036Z,42.87
2019-02-22T08:52:04.214Z,44.43
2019-02-22T08:54:34.327Z,43.03
2019-02-22T08:57:04.413Z,42.40
2019-02-22T08:59:34.502Z,43.07
2019-02-22T09:02:04.592Z,41.87
2019-02-22T09:04:34.770Z,40.97
2019-02-22T09:07:04.791Z,45.17
2019-02-22T09:09:34.880Z,39.73
2019-02-22T09:12:04.947Z,41.10
2019-02-22T09:14:38.207Z,42.10
2019-02-22T09:17:08.320Z,40.27
2019-02-22T09:19:38.388Z,41.40
2019-02-22T09:22:08.506Z,39.07
2019-02-22T09:24:38.577Z,39.13
2019-02-22T09:27:08.669Z,40.10
2019-02-22T09:29:38.747Z,35.50
2019-02-22T09:32:08.861Z,37.50
2019-02-22T09:34:38.939Z,37.37
2019-02-22T09:37:09.018Z,39.27
2019-02-22T09:39:39.177Z,38.90
2019-02-22T09:42:09.258Z,37.10
2019-02-22T09:44:39.264Z,36.80
2019-02-22T09:47:09.375Z,38.67
2019-02-22T09:49:39.477Z,36.63
2019-02-22T09:52:09.637Z,38.23
2019-02-22T09:54:39.705Z,35.73
2019-02-22T09:57:09.812Z,36.73
2019-02-22T09:59:39.934Z,36.60
2019-02-22T10:02:10.044Z,35.40
2019-02-22T10:04:40.142Z,38.27
2019-02-22T10:07:10.324Z,37.37
2019-02-22T10:09:40.450Z,36.87
2019-02-22T10:12:10.676Z,52.93
2019-02-22T10:14:40.850Z,38.23
2019-02-22T10:17:10.935Z,37.10
2019-02-22T10:19:41.044Z,37.17
2019-02-22T10:22:11.225Z,35.33
2019-02-22T10:24:41.356Z,37.00
2019-02-22T10:27:12.236Z,36.67
2019-02-22T10:29:42.438Z,34.90
2019-02-22T10:32:12.478Z,34.50
2019-02-22T10:34:42.580Z,35.90
2019-02-22T10:37:12.713Z,33.60
2019-02-22T10:39:42.804Z,35.67
2019-02-22T10:42:12.878Z,34.57
2019-02-22T10:44:42.960Z,32.33
2019-02-22T10:47:13.056Z,35.40
2019-02-22T10:49:43.157Z,34.57
2019-02-22T10:52:13.239Z,36.37
2019-02-22T10:54:43.336Z,34.10
2019-02-22T10:57:13.484Z,34.77
2019-02-22T10:59:43.555Z,34.37
2019-02-22T11:02:13.655Z,32.90
2019-02-22T11:04:43.800Z,33.87
2019-02-22T11:07:13.946Z,36.43
2019-02-22T11:09:44.116Z,34.70
2019-02-22T11:12:14.195Z,35.43
2019-02-22T11:14:45.921Z,35.63
2019-02-22T11:17:16.159Z,40.53
2019-02-22T11:19:46.271Z,35.20
2019-02-22T11:22:16.365Z,35.20
2019-02-22T11:24:46.455Z,34.90
2019-02-22T11:27:16.603Z,35.60
2019-02-22T11:29:49.186Z,34.20
2019-02-22T11:32:18.411Z,35.47
2019-02-22T11:34:48.508Z,36.00
2019-02-22T11:37:18.618Z,34.10
2019-02-22T11:39:48.640Z,35.63
2019-02-22T11:42:20.539Z,31.80
2019-02-22T11:44:50.596Z,35.50
2019-02-22T11:47:20.700Z,34.00
2019-02-22T11:49:50.859Z,35.53
2019-02-22T11:52:20.889Z,30.40
2019-02-22T11:54:50.983Z,32.60
2019-02-22T11:57:22.639Z,31.87
2019-02-22T11:59:53.987Z,33.87
2019-02-22T12:02:25.717Z,34.30
2019-02-22T12:04:57.093Z,32.77
2019-02-22T12:07:27.173Z,33.50
2019-02-22T12:09:57.267Z,32.70
2019-02-22T12:12:28.825Z,31.37
2019-02-22T12:15:00.521Z,31.10
2019-02-22T12:17:32.312Z,32.73
2019-02-22T12:20:02.424Z,30.77
2019-02-22T12:22:33.768Z,31.87
2019-02-22T12:25:05.679Z,30.57
2019-02-22T12:27:35.856Z,30.70
2019-02-22T12:30:12.212Z,31.50
2019-02-22T12:32:42.301Z,31.40
2019-02-22T12:35:12.472Z,29.70
2019-02-22T12:37:42.552Z,31.63
2019-02-22T12:40:15.238Z,31.53
2019-02-22T12:42:48.602Z,29.00
2019-02-22T12:45:18.771Z,30.07
2019-02-22T12:47:48.884Z,28.73
2019-02-22T12:50:18.992Z,28.10
2019-02-22T12:52:50.877Z,29.63
2019-02-22T12:55:23.964Z,28.50
2019-02-22T12:57:54.144Z,28.20
2019-02-22T13:00:24.259Z,27.30
2019-02-22T13:03:01.997Z,27.83
2019-02-22T13:05:26.567Z,28.50
2019-02-22T13:07:56.728Z,28.60
2019-02-22T13:10:26.816Z,26.60
2019-02-22T13:12:56.963Z,27.63
2019-02-22T13:15:27.064Z,25.63
2019-02-22T13:17:57.169Z,25.47
2019-02-22T13:20:30.365Z,29.25
2019-02-22T13:23:02.930Z,27.77
2019-02-22T13:25:32.312Z,25.03
2019-02-22T13:28:02.458Z,26.53
2019-02-22T13:30:32.617Z,22.20
2019-02-22T13:33:02.757Z,23.63
2019-02-22T13:35:32.929Z,27.00
2019-02-22T13:38:02.972Z,28.27
2019-02-22T13:40:33.108Z,26.60
2019-02-22T13:43:05.300Z,26.37
2019-02-22T13:45:35.013Z,24.97
2019-02-22T13:48:05.246Z,25.50
2019-02-22T13:50:35.444Z,24.17
2019-02-22T13:53:05.636Z,22.97
2019-02-22T13:55:35.717Z,23.07
2019-02-22T13:58:05.858Z,24.13
2019-02-22T14:00:36.136Z,22.73
2019-02-22T14:03:06.418Z,20.50
2019-02-22T14:05:36.533Z,21.70
2019-02-22T14:08:06.707Z,20.60
2019-02-22T14:10:36.935Z,22.27
2019-02-22T14:13:10.530Z,19.97
2019-02-22T14:15:42.605Z,19.17
2019-02-22T14:18:13.545Z,21.00
2019-02-22T14:20:47.115Z,20.60
2019-02-22T14:23:20.983Z,19.23
2019-02-22T14:25:52.662Z,19.73
2019-02-22T14:28:22.829Z,15.50
2019-02-22T14:30:52.940Z,13.90
2019-02-22T14:33:26.324Z,14.80
2019-02-22T14:35:59.143Z,15.73
2019-02-22T14:38:30.246Z,13.70
2019-02-22T14:41:03.487Z,14.07
2019-02-22T14:43:35.986Z,13.60
2019-02-22T14:46:06.682Z,15.50
2019-02-22T14:48:38.036Z,14.00
2019-02-22T14:51:15.091Z,16.03
2019-02-22T14:53:46.417Z,15.07
2019-02-22T14:56:16.256Z,13.07
2019-02-22T14:58:47.598Z,13.40
2019-02-22T15:01:17.720Z,11.30
2019-02-22T15:03:49.060Z,11.63
2019-02-22T15:06:19.206Z,11.40
2019-02-22T15:08:50.320Z,13.47
2019-02-22T15:11:20.613Z,6.70
2019-02-22T15:13:50.688Z,11.60
2019-02-22T15:16:32.164Z,6.87
2019-02-22T15:19:02.228Z,6.33
2019-02-22T15:21:34.521Z,7.30
2019-02-22T15:24:10.423Z,6.00
2019-02-22T15:26:41.300Z,7.50
2019-02-22T15:29:13.264Z,6.57
2019-02-22T15:31:43.430Z,6.10
2019-02-22T15:34:13.553Z,7.53
2019-02-22T15:36:43.768Z,10.73
2019-02-22T15:39:21.197Z,11.33
2019-02-22T15:41:51.335Z,7.40
2019-02-22T15:44:24.307Z,6.73
2019-02-22T15:46:57.496Z,6.37
2019-02-22T15:49:28.790Z,7.20
2019-02-22T15:51:58.899Z,7.53
2019-02-22T15:54:33.509Z,7.50
2019-02-22T15:57:03.655Z,5.40
2019-02-22T15:59:34.789Z,6.07
2019-02-22T16:02:05.428Z,4.87
2019-02-22T16:04:41.996Z,9.03
2019-02-22T16:07:12.145Z,15.40
2019-02-22T16:09:42.269Z,10.20
2019-02-22T16:12:13.626Z,7.43
2019-02-22T16:14:45.059Z,5.30
2019-02-22T16:17:15.276Z,5.53
2019-02-22T16:19:47.139Z,5.17
2019-02-22T16:22:17.426Z,6.13
2019-02-22T16:24:47.758Z,7.37
2019-02-22T16:27:17.892Z,6.57
2019-02-22T16:29:49.313Z,6.73
2019-02-22T16:32:19.459Z,7.00
2019-02-22T16:34:49.685Z,7.27
2019-02-22T16:37:21.619Z,6.50
2019-02-22T16:39:54.165Z,6.50
2019-02-22T16:42:23.558Z,8.33
2019-02-22T16:44:53.843Z,12.40
2019-02-22T16:47:26.435Z,13.23
2019-02-22T16:49:55.871Z,12.70
2019-02-22T16:52:27.951Z,11.73
2019-02-22T16:54:57.843Z,12.80
2019-02-22T16:57:28.028Z,13.10
2019-02-22T16:59:58.165Z,13.83
2019-02-22T17:02:32.721Z,13.93
2019-02-22T17:05:02.929Z,14.87
2019-02-22T17:07:36.897Z,16.17
2019-02-22T17:10:08.662Z,17.13
2019-02-22T17:12:38.816Z,14.40
2019-02-22T17:15:10.738Z,17.90
2019-02-22T17:17:45.049Z,22.50
2019-02-22T17:20:15.537Z,20.40
2019-02-22T17:22:45.660Z,20.43
2019-02-22T17:25:16.221Z,18.20
2019-02-22T17:27:46.444Z,15.37
2019-02-22T17:30:16.635Z,15.90
2019-02-22T17:32:46.839Z,15.90
2019-02-22T17:35:17.058Z,21.30
2019-02-22T17:37:47.293Z,32.63
2019-02-22T17:40:17.446Z,23.27
2019-02-22T17:42:47.658Z,28.23
2019-02-22T17:45:22.206Z,16.50
2019-02-22T17:47:52.401Z,17.20
2019-02-22T17:50:28.041Z,13.17
2019-02-22T17:52:57.492Z,13.20
2019-02-22T17:55:27.686Z,14.83
2019-02-22T17:57:57.846Z,13.27
2019-02-22T18:00:29.759Z,10.80
2019-02-22T18:03:02.806Z,9.23
2019-02-22T18:05:33.586Z,10.87
2019-02-22T18:08:03.821Z,10.20
2019-02-22T18:10:34.056Z,11.47
2019-02-22T18:13:04.197Z,11.27
2019-02-22T18:15:34.417Z,11.00
2019-02-22T18:18:05.669Z,12.03
2019-02-22T18:20:35.832Z,10.77
2019-02-22T18:23:06.065Z,11.13
2019-02-22T18:25:36.295Z,11.80
2019-02-22T18:28:07.079Z,12.73
2019-02-22T18:30:37.285Z,12.83
2019-02-22T18:33:07.515Z,12.53
2019-02-22T18:35:37.787Z,12.00
2019-02-22T18:38:07.957Z,14.13
2019-02-22T18:40:38.598Z,14.00
2019-02-22T18:43:08.742Z,17.00
2019-02-22T18:45:39.322Z,17.80
2019-02-22T18:48:11.941Z,16.23
2019-02-22T18:50:42.676Z,18.00
2019-02-22T18:53:13.887Z,19.40
2019-02-22T18:55:50.252Z,15.93
2019-02-22T18:58:17.051Z,12.80
2019-02-22T19:00:51.168Z,11.23
2019-02-22T19:03:22.464Z,10.87
2019-02-22T19:05:54.652Z,10.17
2019-02-22T19:08:32.019Z,10.63
2019-02-22T19:10:56.628Z,10.60
2019-02-22T19:13:26.881Z,10.13
2019-02-22T19:15:57.525Z,10.50
2019-02-22T19:18:27.782Z,11.13
2019-02-22T19:20:59.134Z,11.07
2019-02-22T19:23:31.039Z,9.87
2019-02-22T19:26:02.788Z,9.73
2019-02-22T19:28:33.643Z,11.20
2019-02-22T19:31:05.742Z,8.53
2019-02-22T19:33:36.138Z,10.60
2019-02-22T19:36:08.693Z,11.40
2019-02-22T19:38:38.992Z,10.93
2019-02-22T19:41:09.429Z,11.70
2019-02-22T19:43:42.986Z,10.97
2019-02-22T19:46:15.489Z,9.43
2019-02-22T19:48:45.806Z,10.30
2019-02-22T19:51:16.441Z,13.23
2019-02-22T19:53:47.060Z,12.10
2019-02-22T19:56:17.667Z,12.40
2019-02-22T19:58:48.258Z,11.10
2019-02-22T20:01:18.650Z,9.40
2019-02-22T20:03:49.458Z,9.53
2019-02-22T20:06:20.013Z,9.10
2019-02-22T20:08:50.698Z,8.43
2019-02-22T20:11:21.092Z,8.50
2019-02-22T20:13:52.404Z,8.13
2019-02-22T20:16:22.667Z,7.73
2019-02-22T20:18:55.017Z,7.93
2019-02-22T20:21:26.824Z,8.40
2019-02-22T20:23:59.574Z,7.50
2019-02-22T20:26:31.872Z,8.57
2019-02-22T20:29:02.593Z,7.20
2019-02-22T20:31:34.379Z,7.97
2019-02-22T20:34:07.104Z,7.60
2019-02-22T20:36:37.842Z,8.10
2019-02-22T20:39:10.181Z,7.37
2019-02-22T20:41:41.735Z,8.10
2019-02-22T20:44:12.151Z,7.87
2019-02-22T20:46:43.666Z,6.77
2019-02-22T20:49:15.444Z,7.20
2019-02-22T20:51:46.362Z,6.30
2019-02-22T20:54:16.621Z,6.50
2019-02-22T20:56:46.930Z,6.77
2019-02-22T20:59:17.207Z,7.00
2019-02-22T21:01:47.446Z,7.07
2019-02-22T21:04:17.933Z,6.90
2019-02-22T21:06:49.437Z,7.30
2019-02-22T21:09:21.692Z,6.20
2019-02-22T21:11:53.732Z,7.10
2019-02-22T21:14:24.922Z,6.20
2019-02-22T21:16:56.637Z,7.30
2019-02-22T21:19:30.494Z,7.07
2019-02-22T21:22:04.116Z,6.63
2019-02-22T21:24:35.779Z,7.20
2019-02-22T21:27:06.023Z,6.93
2019-02-22T21:29:38.969Z,7.87
2019-02-22T21:32:09.172Z,7.00
2019-02-22T21:34:39.498Z,6.07
2019-02-22T21:37:09.795Z,6.83
2019-02-22T21:39:40.111Z,6.90
2019-02-22T21:42:19.860Z,7.30
2019-02-22T21:44:42.586Z,6.00
2019-02-22T21:47:12.804Z,7.60
2019-02-22T21:49:42.992Z,7.27
2019-02-22T21:52:16.420Z,6.97
2019-02-22T21:54:46.644Z,7.70
2019-02-22T21:57:22.547Z,7.13
2019-02-22T21:59:53.373Z,7.57
2019-02-22T22:02:22.798Z,7.90
2019-02-22T22:04:52.987Z,7.60
2019-02-22T22:07:23.229Z,8.03
2019-02-22T22:09:57.621Z,8.03
2019-02-22T22:12:29.924Z,8.23
2019-02-22T22:15:00.033Z,8.53
2019-02-22T22:17:30.220Z,7.67
2019-02-22T22:20:00.430Z,8.40
2019-02-22T22:22:30.715Z,8.70
2019-02-22T22:25:00.948Z,8.37
2019-02-22T22:27:32.260Z,8.40
2019-02-22T22:30:02.446Z,8.07
2019-02-22T22:32:36.948Z,8.20
2019-02-22T22:35:11.281Z,8.10
2019-02-22T22:37:42.684Z,7.70
2019-02-22T22:40:19.831Z,8.20
2019-02-22T22:42:51.581Z,8.50
2019-02-22T22:45:23.738Z,8.20
2019-02-22T22:47:53.662Z,8.67
2019-02-22T22:50:23.772Z,9.33
2019-02-22T22:52:54.022Z,8.20
2019-02-22T22:55:24.162Z,8.20
2019-02-22T22:57:54.289Z,8.37
2019-02-22T23:00:59.156Z,8.40
2019-02-22T23:03:30.520Z,9.50
2019-02-22T23:06:00.814Z,9.20
2019-02-22T23:08:32.545Z,9.40
2019-02-22T23:11:02.638Z,10.07
2019-02-22T23:13:36.167Z,9.73
2019-02-22T23:16:07.273Z,10.10
2019-02-22T23:18:37.371Z,10.40
2019-02-22T23:21:08.114Z,10.40
2019-02-22T23:23:38.252Z,8.87
2019-02-22T23:26:09.634Z,10.57
2019-02-22T23:28:39.799Z,10.80
2019-02-22T23:31:13.695Z,10.87
2019-02-22T23:33:43.790Z,11.90
2019-02-22T23:36:13.881Z,10.40
2019-02-22T23:38:43.999Z,11.00
2019-02-22T23:41:16.508Z,10.93
2019-02-22T23:43:48.697Z,11.60
2019-02-22T23:46:18.833Z,9.60
2019-02-22T23:48:48.930Z,11.40
2019-02-22T23:51:19.043Z,11.20
2019-02-22T23:53:49.231Z,10.07
2019-02-22T23:56:19.328Z,12.00
2019-02-22T23:58:53.227Z,12.10
